K3JAR-3 Weather Reports


Display with metric or nautical units.
time (UTC)temp
F
wind
direction
speed
MPH
gust
MPH
rain 1hr
in
rain 24hr
in
rain mn
in
humidity
%
barometer
mb
20191014040034 61 180 0.0 1.0 0.00 0.00 0.00 73 1016.5
20191014035032 61 163 1.0 2.0 0.00 0.00 0.00 73 1016.5
20191014034018 61 161 1.0 2.0 0.00 0.00 0.00 73 1016.6
20191014033022 61 165 1.0 2.0 0.00 0.00 0.00 72 1016.6
20191014032025 61 127 1.0 3.0 0.00 0.00 0.00 72 1016.5
20191014031028 61 157 1.0 2.0 0.00 0.00 0.00 71 1016.3
20191014030025 61 0.0 0.0 0.00 0.00 0.00 70 1016.2
20191014025017 62 0.0 0.0 0.00 0.00 0.00 69 1016.1
20191014024020 62 165 1.0 1.0 0.00 0.00 0.00 68 1016.1
20191014023017 62 157 0.0 2.0 0.00 0.00 0.00 68 1016.1
20191014022015 62 157 0.0 1.0 0.00 0.00 0.00 66 1016.3
20191014021030 63 160 1.0 2.0 0.00 0.00 0.00 65 1016.1
20191014020021 63 155 0.0 2.0 0.00 0.00 0.00 64 1016.0
20191014015020 64 163 2.0 4.0 0.00 0.00 0.00 62 1015.9
20191014014022 64 164 2.0 3.0 0.00 0.00 0.00 61 1015.9
20191014013020 65 151 2.0 2.0 0.00 0.00 0.00 60 1015.9
20191014012024 66 150 2.0 3.0 0.00 0.00 0.00 58 1016.1
20191014011028 66 157 2.0 4.0 0.00 0.00 0.00 57 1015.8
20191014010032 67 157 3.0 5.0 0.00 0.00 0.00 56 1015.7
20191014005016 68 164 3.0 5.0 0.00 0.00 0.00 55 1015.5
20191014004020 68 150 4.0 6.0 0.00 0.00 0.00 55 1015.3
20191014003023 69 162 4.0 6.0 0.00 0.00 0.00 54 1015.2
20191014002032 69 177 3.0 4.0 0.00 0.00 0.00 52 1014.9
20191014001030 70 158 4.0 6.0 0.00 0.00 0.00 49 1015.0
20191014000016 71 143 4.0 7.0 0.00 0.00 0.00 48 1014.9
20191013235019 72 166 3.0 6.0 0.00 0.00 0.00 46 1014.9
20191013234022 73 147 3.0 5.0 0.00 0.00 0.00 45 1014.8
20191013233026 73 170 5.0 8.0 0.00 0.00 0.00 44 1014.8
20191013232030 74 156 5.0 7.0 0.00 0.00 0.00 43 1014.9
20191013231015 74 173 7.0 9.0 0.00 0.00 0.00 42 1014.6
20191013230018 75 164 7.0 10.0 0.00 0.00 0.00 40 1014.7
20191013225022 76 172 6.0 10.0 0.00 0.00 0.00 39 1014.7
20191013224019 76 178 7.0 8.0 0.00 0.00 0.00 39 1014.7
20191013223017 76 151 4.0 7.0 0.00 0.00 0.00 38 1014.8
20191013222033 77 172 5.0 9.0 0.00 0.00 0.00 37 1014.7
20191013221023 77 178 5.0 9.0 0.00 0.00 0.00 37 1014.6
20191013220022 77 179 6.0 8.0 0.00 0.00 0.00 38 1014.6
20191013215025 78 168 5.0 8.0 0.00 0.00 0.00 37 1014.6
20191013214028 77 171 8.0 12.0 0.00 0.00 0.00 37 1014.6
20191013213032 78 166 6.0 10.0 0.00 0.00 0.00 36 1014.5
20191013212021 78 185 6.0 7.0 0.00 0.00 0.00 36 1014.7
20191013211020 78 157 6.0 9.0 0.00 0.00 0.00 36 1014.8
20191013210024 78 156 5.0 10.0 0.00 0.00 0.00 35 1014.9
20191013205027 78 171 5.0 7.0 0.00 0.00 0.00 35 1015.0
20191013204031 78 154 5.0 8.0 0.00 0.00 0.00 35 1015.0
20191013203017 78 164 6.0 8.0 0.00 0.00 0.00 35 1015.0
20191013202020 78 169 5.0 10.0 0.00 0.00 0.00 35 1015.1
20191013201023 78 155 4.0 6.0 0.00 0.00 0.00 34 1015.3
20191013200027 78 175 5.0 7.0 0.00 0.00 0.00 35 1015.3
20191013195030 77 165 6.0 8.0 0.00 0.00 0.00 34 1015.4
20191013194016 78 147 4.0 6.0 0.00 0.00 0.00 34 1015.6
20191013193019 77 173 6.0 9.0 0.00 0.00 0.00 33 1015.7
20191013192023 78 203 4.0 8.0 0.00 0.00 0.00 33 1015.8
20191013191026 78 172 5.0 10.0 0.00 0.00 0.00 32 1016.1
20191013190024 77 152 4.0 7.0 0.00 0.00 0.00 32 1016.3
20191013185015 76 168 5.0 8.0 0.00 0.00 0.00 32 1016.4
20191013184018 76 166 7.0 11.0 0.00 0.00 0.00 32 1016.6
20191013183015 76 166 5.0 8.0 0.00 0.00 0.00 32 1016.8
20191013182025 76 173 5.0 7.0 0.00 0.00 0.00 33 1017.0
20191013181029 75 151 5.0 8.0 0.00 0.00 0.00 33 1017.1
20191013180032 75 155 5.0 8.0 0.00 0.00 0.00 33 1017.3
20191013175018 75 173 5.0 9.0 0.00 0.00 0.00 34 1017.5
20191013174021 75 158 4.0 8.0 0.00 0.00 0.00 34 1017.6
20191013173025 74 188 6.0 9.0 0.00 0.00 0.00 35 1017.7
20191013172023 73 159 5.0 7.0 0.00 0.00 0.00 36 1018.0
20191013171026 73 194 5.0 8.0 0.00 0.00 0.00 36 1018.0
20191013170029 0 180 5.0 5.0 0.00 0.00 0.00 1018.2
20191013160527 69 162 4.0 7.0 0.00 0.00 0.00 44 1018.5
20191013155525 67 158 4.0 6.0 0.00 0.00 0.00 48 1018.5
20191013154516 68 173 3.0 4.0 0.00 0.00 0.00 49 1018.5
20191013153519 65 187 6.0 7.0 0.00 0.00 0.00 49 1018.7
20191013152517 66 172 6.0 9.0 0.00 0.00 0.00 49 1018.7
20191013151526 65 178 4.0 7.0 0.00 0.00 0.00 52 1018.7
20191013150530 64 169 5.0 6.0 0.00 0.00 0.00 54 1018.7
20191013145516 63 167 3.0 5.0 0.00 0.00 0.00 55 1018.9
20191013144519 62 174 3.0 6.0 0.00 0.00 0.00 56 1018.9
20191013143522 61 170 5.0 7.0 0.00 0.00 0.00 59 1018.8
20191013142525 61 174 3.0 5.0 0.00 0.00 0.00 60 1018.7
20191013141529 60 170 3.0 5.0 0.00 0.00 0.00 62 1018.7
20191013140533 59 154 3.0 5.0 0.00 0.00 0.00 63 1018.7
20191013135518 59 160 2.0 5.0 0.00 0.00 0.00 64 1018.6
20191013134522 58 173 2.0 4.0 0.00 0.00 0.00 65 1018.6
20191013133525 58 166 3.0 4.0 0.00 0.00 0.00 66 1018.6
20191013132529 58 163 2.0 3.0 0.00 0.00 0.00 68 1018.5
20191013131532 57 160 2.0 3.0 0.00 0.00 0.00 68 1018.5
20191013130517 57 175 1.0 3.0 0.00 0.00 0.00 68 1018.5
20191013125521 57 163 2.0 3.0 0.00 0.00 0.00 68 1018.3
20191013124524 57 177 3.0 4.0 0.00 0.00 0.00 67 1018.4
20191013123528 57 175 3.0 4.0 0.00 0.00 0.00 66 1018.4
20191013122532 57 187 2.0 3.0 0.00 0.00 0.00 66 1018.2
20191013121516 57 178 3.0 5.0 0.00 0.00 0.00 66 1018.2
20191013120520 57 176 4.0 6.0 0.00 0.00 0.00 64 1018.1
20191013115523 57 166 3.0 5.0 0.00 0.00 0.00 64 1018.0
20191013114520 57 175 4.0 6.0 0.00 0.00 0.00 64 1018.2
20191013113517 57 168 4.0 7.0 0.00 0.00 0.00 63 1018.3
20191013112515 57 153 4.0 5.0 0.00 0.00 0.00 63 1018.2
20191013111519 57 163 3.0 5.0 0.00 0.00 0.00 62 1018.1
20191013110517 57 166 3.0 4.0 0.00 0.00 0.00 62 1018.1
20191013105520 57 170 3.0 4.0 0.00 0.00 0.00 61 1018.2
20191013104524 57 174 2.0 4.0 0.00 0.00 0.00 60 1018.4
20191013103527 57 151 3.0 5.0 0.00 0.00 0.00 60 1018.3
20191013102531 57 173 3.0 4.0 0.00 0.00 0.00 63 1018.2
20191013101516 57 170 0.0 1.0 0.00 0.00 0.00 63 1018.2
20191013100519 57 163 0.0 2.0 0.00 0.00 0.00 62 1018.2
20191013095523 57 172 1.0 3.0 0.00 0.00 0.00 62 1018.3
20191013094526 56 0.0 0.0 0.00 0.00 0.00 61 1018.3
20191013093530 56 180 0.0 1.0 0.00 0.00 0.00 63 1018.3
20191013092515 56 0.0 0.0 0.00 0.00 0.00 62 1018.2
20191013091521 56 0.0 0.0 0.00 0.00 0.00 60 1018.2
20191013090522 56 0.0 0.0 0.00 0.00 0.00 65 1018.2
20191013085525 56 172 0.0 2.0 0.00 0.00 0.00 61 1018.0
20191013084529 56 0.0 0.0 0.00 0.00 0.00 67 1018.0
20191013083532 55 0.0 0.0 0.00 0.00 0.00 68 1018.1
20191013082518 55 0.0 0.0 0.00 0.00 0.00 65 1018.1
20191013081521 54 0.0 0.0 0.00 0.00 0.00 65 1018.1
20191013080524 54 0.0 0.0 0.00 0.00 0.00 66 1018.0
20191013075524 54 0.0 0.0 0.00 0.00 0.00 66 1018.0
20191013074522 53 0.0 0.0 0.00 0.00 0.00 65 1017.9
20191013073517 53 0.0 0.0 0.00 0.00 0.00 71 1017.9
20191013072521 53 0.0 0.0 0.00 0.00 0.00 70 1017.9
20191013071524 52 90 0.0 1.0 0.00 0.00 0.00 67 1018.0
20191013070528 52 0.0 0.0 0.00 0.00 0.00 68 1018.0
20191013065531 52 0.0 0.0 0.00 0.00 0.00 71 1017.8
20191013064517 52 0.0 0.0 0.00 0.00 0.00 72 1017.6
20191013063520 52 0.0 0.0 0.00 0.00 0.00 73 1017.7
20191013062519 52 0.0 0.0 0.00 0.00 0.00 68 1017.7
20191013061522 52 0.0 0.0 0.00 0.00 0.00 63 1017.8
20191013060526 53 0.0 0.0 0.00 0.00 0.00 62 1017.9
20191013055528 53 0.0 0.0 0.00 0.00 0.00 62 1018.1
20191013054532 53 186 1.0 2.0 0.00 0.00 0.00 61 1018.0
20191013053518 53 175 0.0 2.0 0.00 0.00 0.00 60 1018.0
20191013052520 53 0.0 0.0 0.00 0.00 0.00 61 1018.3
20191013051529 53 161 1.0 2.0 0.00 0.00 0.00 60 1018.5
20191013050528 53 160 0.0 2.0 0.00 0.00 0.00 61 1018.6
20191013045531 52 0.0 0.0 0.00 0.00 0.00 60 1018.3
20191013044517 52 0.0 0.0 0.00 0.00 0.00 64 1018.2
20191013043520 53 0.0 0.0 0.00 0.00 0.00 58 1018.4
20191013042523 53 0.0 0.0 0.00 0.00 0.00 58 1018.3
20191013041527 53 0.0 0.0 0.00 0.00 0.00 57 1018.3